Time;durP1;ratioP1;P1;durP2;ratioP2;P2;SDS_P1;SDS_P2;PMS_P1;PMS_P2;Temp;Humidity;BMP_temperature;BMP_pressure;BME280_temperature;BME280_humidity;BME280_pressure;Samples;Min_cycle;Max_cycle;Signal;HPM_P1;HPM_P2
2021/04/01 00:00:06;;;;;;;21.70;12.57;;;;;;;;;;4985580;28;20450;-96
2021/04/01 00:02:32;;;;;;;15.93;12.33;;;;;;;;;;5000629;28;20469;-96
2021/04/01 00:04:59;;;;;;;12.87;11.03;;;;;;;;;;4996802;28;20461;-96
2021/04/01 00:07:25;;;;;;;18.53;12.27;;;;;;;;;;5000744;28;20493;-96
2021/04/01 00:09:51;;;;;;;16.53;12.63;;;;;;;;;;4996959;28;20457;-96
2021/04/01 00:12:17;;;;;;;20.27;13.50;;;;;;;;;;5001701;28;20453;-96
2021/04/01 00:14:43;;;;;;;16.50;11.90;;;;;;;;;;4996467;28;20453;-96
2021/04/01 00:17:12;;;;;;;17.00;13.60;;;;;;;;;;4983906;28;20484;-96
2021/04/01 00:19:38;;;;;;;18.87;12.67;;;;;;;;;;4995324;28;20452;-95
2021/04/01 00:22:05;;;;;;;20.57;13.00;;;;;;;;;;4994536;28;20449;-96
2021/04/01 00:24:31;;;;;;;18.20;13.50;;;;;;;;;;4990074;28;20485;-96
2021/04/01 00:26:58;;;;;;;19.10;13.37;;;;;;;;;;4988049;28;20456;-96
2021/04/01 00:29:24;;;;;;;17.37;12.67;;;;;;;;;;4986755;28;20472;-96
2021/04/01 00:31:50;;;;;;;22.33;12.57;;;;;;;;;;4992362;28;20454;-95
2021/04/01 00:34:16;;;;;;;21.50;12.33;;;;;;;;;;5009241;28;20484;-96
2021/04/01 00:39:50;;;;;;;16.23;11.73;;;;;;;;;;5009635;28;20456;-96
2021/04/01 00:42:17;;;;;;;17.97;12.17;;;;;;;;;;5010203;28;20437;-95
2021/04/01 00:44:43;;;;;;;18.07;13.07;;;;;;;;;;5004204;28;20457;-96
2021/04/01 00:47:09;;;;;;;18.23;13.30;;;;;;;;;;4992735;28;20440;-95
2021/04/01 00:49:36;;;;;;;16.67;12.70;;;;;;;;;;5000176;28;20467;-96
2021/04/01 00:52:03;;;;;;;17.00;13.00;;;;;;;;;;4991320;28;20453;-96
2021/04/01 00:54:29;;;;;;;18.07;13.40;;;;;;;;;;4988417;28;20485;-95
2021/04/01 00:56:56;;;;;;;17.23;12.80;;;;;;;;;;4995747;28;20483;-95
2021/04/01 00:59:22;;;;;;;15.43;12.13;;;;;;;;;;4995293;28;20453;-96
2021/04/01 01:01:51;;;;;;;16.60;12.43;;;;;;;;;;4999911;28;20448;-95
2021/04/01 01:04:18;;;;;;;19.40;13.37;;;;;;;;;;5003785;28;20457;-96
2021/04/01 01:06:45;;;;;;;17.20;13.50;;;;;;;;;;4999682;28;20450;-95
2021/04/01 01:09:11;;;;;;;16.27;13.33;;;;;;;;;;4974923;28;20450;-94
2021/04/01 01:11:38;;;;;;;25.57;13.90;;;;;;;;;;5004834;28;20464;-96
2021/04/01 01:14:07;;;;;;;18.03;13.70;;;;;;;;;;5008665;28;20499;-96
2021/04/01 01:16:35;;;;;;;15.57;12.60;;;;;;;;;;4994421;28;20465;-96
2021/04/01 01:19:01;;;;;;;18.17;13.83;;;;;;;;;;5005059;28;20538;-96
2021/04/01 01:21:28;;;;;;;22.70;14.50;;;;;;;;;;4996364;28;20441;-96
2021/04/01 01:23:57;;;;;;;20.87;13.83;;;;;;;;;;4975617;28;20452;-96
2021/04/01 01:26:25;;;;;;;19.93;13.80;;;;;;;;;;5001312;28;20481;-95
2021/04/01 01:28:51;;;;;;;18.13;14.03;;;;;;;;;;5006206;28;20484;-96
2021/04/01 01:31:20;;;;;;;17.03;13.80;;;;;;;;;;4988938;28;20468;-95
2021/04/01 01:33:46;;;;;;;18.47;13.67;;;;;;;;;;4992770;28;20604;-96
2021/04/01 01:36:13;;;;;;;16.50;12.27;;;;;;;;;;4987775;28;20493;-95
2021/04/01 01:38:40;;;;;;;16.73;12.20;;;;;;;;;;4978121;28;20446;-95
2021/04/01 01:41:06;;;;;;;17.50;13.00;;;;;;;;;;5002564;28;20969;-96
2021/04/01 01:43:33;;;;;;;14.77;12.87;;;;;;;;;;4995410;28;20476;-96
2021/04/01 01:46:00;;;;;;;15.97;12.90;;;;;;;;;;4986103;28;20457;-96
2021/04/01 01:48:34;;;;;;;15.90;12.00;;;;;;;;;;4993557;28;20445;-96
2021/04/01 01:51:02;;;;;;;15.17;12.00;;;;;;;;;;4982643;28;20445;-96
2021/04/01 01:53:28;;;;;;;16.70;12.63;;;;;;;;;;5006003;28;20492;-96
2021/04/01 01:55:54;;;;;;;17.60;14.20;;;;;;;;;;4993156;28;20519;-95
2021/04/01 01:58:22;;;;;;;16.63;12.50;;;;;;;;;;4991965;28;20465;-96
2021/04/01 02:00:54;;;;;;;21.07;15.07;;;;;;;;;;4997516;28;21269;-96
2021/04/01 02:03:20;;;;;;;17.70;14.00;;;;;;;;;;4987846;28;20561;-96
2021/04/01 02:05:46;;;;;;;19.70;14.20;;;;;;;;;;4988047;28;20468;-94
2021/04/01 02:08:13;;;;;;;19.30;14.90;;;;;;;;;;4996495;28;20455;-96
2021/04/01 02:10:42;;;;;;;19.57;16.67;;;;;;;;;;4987658;28;20460;-96
2021/04/01 02:13:08;;;;;;;21.60;16.20;;;;;;;;;;5003224;28;20456;-96
2021/04/01 02:15:35;;;;;;;21.93;16.23;;;;;;;;;;5002533;28;20500;-96
2021/04/01 02:18:07;;;;;;;20.63;15.77;;;;;;;;;;4991636;28;20472;-96
2021/04/01 02:20:39;;;;;;;21.10;15.50;;;;;;;;;;4983983;28;20465;-94
2021/04/01 02:23:06;;;;;;;19.60;16.20;;;;;;;;;;4996013;28;20484;-96
2021/04/01 02:25:32;;;;;;;24.60;19.33;;;;;;;;;;4999826;28;20544;-96
2021/04/01 02:27:58;;;;;;;37.23;21.80;;;;;;;;;;5000655;28;20440;-96
2021/04/01 02:30:26;;;;;;;24.27;20.33;;;;;;;;;;4992397;28;20460;-96
2021/04/01 02:32:53;;;;;;;29.80;22.00;;;;;;;;;;5000639;28;20459;-96
2021/04/01 02:35:21;;;;;;;29.80;22.90;;;;;;;;;;5000674;28;20462;-96
2021/04/01 02:37:47;;;;;;;27.33;21.30;;;;;;;;;;4985295;28;20470;-96
2021/04/01 02:40:13;;;;;;;25.23;20.03;;;;;;;;;;4987287;28;20817;-96
2021/04/01 02:42:40;;;;;;;25.97;20.90;;;;;;;;;;4986230;28;20481;-96
2021/04/01 02:45:39;;;;;;;22.90;20.40;;;;;;;;;;4995059;28;20426;-96
2021/04/01 02:48:06;;;;;;;22.27;19.10;;;;;;;;;;4995429;28;20456;-96
2021/04/01 02:50:33;;;;;;;24.17;19.57;;;;;;;;;;4993968;28;20460;-96
2021/04/01 02:53:07;;;;;;;24.23;19.33;;;;;;;;;;4993817;28;20529;-96
2021/04/01 02:55:46;;;;;;;21.93;15.87;;;;;;;;;;4987233;28;20485;-96
2021/04/01 02:58:12;;;;;;;25.07;17.73;;;;;;;;;;4995334;28;20457;-95
2021/04/01 03:00:39;;;;;;;22.50;16.50;;;;;;;;;;4993505;28;20445;-96
2021/04/01 03:03:08;;;;;;;18.60;14.53;;;;;;;;;;4981631;28;20513;-96
2021/04/01 03:05:36;;;;;;;17.50;13.83;;;;;;;;;;4997173;28;20476;-96
2021/04/01 03:08:03;;;;;;;17.73;13.60;;;;;;;;;;4998590;28;20583;-96
2021/04/01 03:10:30;;;;;;;17.97;14.40;;;;;;;;;;5008265;28;20456;-96
2021/04/01 03:12:56;;;;;;;21.17;14.27;;;;;;;;;;4970578;28;20446;-96
2021/04/01 03:15:22;;;;;;;20.17;15.10;;;;;;;;;;4971403;28;20455;-96
2021/04/01 03:26:02;;;;;;;16.70;12.47;;;;;;;;;;5045409;28;20475;-96
2021/04/01 03:28:29;;;;;;;17.07;12.70;;;;;;;;;;5021170;28;20440;-96
2021/04/01 03:31:00;;;;;;;18.20;13.27;;;;;;;;;;5043724;28;20444;-95
2021/04/01 03:33:27;;;;;;;20.03;14.70;;;;;;;;;;5036822;28;20490;-96
2021/04/01 03:35:57;;;;;;;18.93;13.17;;;;;;;;;;5049664;28;20473;-96
2021/04/01 03:38:31;;;;;;;22.33;13.47;;;;;;;;;;5053861;28;20463;-96
2021/04/01 03:44:12;;;;;;;16.63;11.93;;;;;;;;;;5036367;28;20486;-96
2021/04/01 03:46:38;;;;;;;19.10;13.20;;;;;;;;;;5026137;28;20455;-95
2021/04/01 03:49:04;;;;;;;17.90;13.17;;;;;;;;;;5042004;28;20447;-96
2021/04/01 03:51:30;;;;;;;17.03;12.77;;;;;;;;;;5031519;28;20464;-95
2021/04/01 03:53:59;;;;;;;19.70;13.70;;;;;;;;;;5034411;28;20458;-96
2021/04/01 03:56:26;;;;;;;18.57;13.70;;;;;;;;;;5018048;28;20493;-96
2021/04/01 04:07:38;;;;;;;23.67;16.73;;;;;;;;;;5048328;23;20566;-92
2021/04/01 04:10:20;;;;;;;29.63;19.10;;;;;;;;;;5033217;28;20453;-93
2021/04/01 04:12:55;;;;;;;59.70;34.40;;;;;;;;;;5036555;28;20530;-96
2021/04/01 04:15:22;;;;;;;106.43;51.97;;;;;;;;;;5028299;28;20470;-95
2021/04/01 04:17:48;;;;;;;46.17;29.57;;;;;;;;;;5023875;28;20463;-96
2021/04/01 04:20:25;;;;;;;45.77;28.67;;;;;;;;;;5012012;28;20451;-96
2021/04/01 04:22:53;;;;;;;33.10;23.23;;;;;;;;;;5029008;28;20478;-96
2021/04/01 04:25:19;;;;;;;24.50;20.60;;;;;;;;;;5035650;28;20454;-96
2021/04/01 04:30:32;;;;;;;27.40;21.50;;;;;;;;;;5029719;28;20455;-96
2021/04/01 04:32:58;;;;;;;29.10;21.23;;;;;;;;;;5025681;28;20451;-96
2021/04/01 04:35:25;;;;;;;25.80;19.37;;;;;;;;;;5033436;28;20455;-96
2021/04/01 04:37:52;;;;;;;23.80;17.40;;;;;;;;;;5024278;28;20456;-96
2021/04/01 04:40:18;;;;;;;26.07;16.97;;;;;;;;;;5028653;28;20452;-96
2021/04/01 04:42:44;;;;;;;22.63;18.07;;;;;;;;;;5027502;28;20525;-96
2021/04/01 04:45:11;;;;;;;32.20;21.60;;;;;;;;;;5034646;28;20435;-96
2021/04/01 04:47:37;;;;;;;27.23;21.50;;;;;;;;;;5038653;28;20477;-96
2021/04/01 04:50:04;;;;;;;25.20;20.13;;;;;;;;;;5027197;28;20459;-96
2021/04/01 04:52:31;;;;;;;29.67;21.33;;;;;;;;;;5024606;28;20486;-95
2021/04/01 04:55:00;;;;;;;25.43;18.73;;;;;;;;;;5026824;28;20904;-96
2021/04/01 05:00:09;;;;;;;28.15;19.92;;;;;;;;;;5132759;23;20582;-93
2021/04/01 05:05:30;;;;;;;22.90;15.50;;;;;;;;;;5020031;28;20466;-96
2021/04/01 05:08:04;;;;;;;13.97;9.50;;;;;;;;;;5029504;28;20436;-96
2021/04/01 05:10:31;;;;;;;14.50;10.10;;;;;;;;;;5024286;28;20507;-93
2021/04/01 05:13:07;;;;;;;28.47;18.80;;;;;;;;;;5025894;28;20459;-96
2021/04/01 05:15:34;;;;;;;38.47;24.23;;;;;;;;;;5007395;28;20477;-96
2021/04/01 05:18:13;;;;;;;33.30;19.37;;;;;;;;;;5025700;28;20479;-95
2021/04/01 05:20:39;;;;;;;26.80;16.70;;;;;;;;;;5019632;28;20490;-96
2021/04/01 05:23:10;;;;;;;20.70;14.90;;;;;;;;;;5029889;28;20463;-96
2021/04/01 05:25:37;;;;;;;19.50;13.30;;;;;;;;;;5022549;28;20467;-93
2021/04/01 05:28:06;;;;;;;16.93;11.23;;;;;;;;;;5027208;28;20461;-96
2021/04/01 05:30:32;;;;;;;27.53;19.20;;;;;;;;;;5024085;28;20559;-94
2021/04/01 05:32:58;;;;;;;26.80;17.17;;;;;;;;;;5020852;28;21008;-96
2021/04/01 05:35:25;;;;;;;25.27;17.13;;;;;;;;;;5030103;28;20466;-96
2021/04/01 05:37:52;;;;;;;19.37;10.67;;;;;;;;;;5032585;28;20473;-96
2021/04/01 05:40:20;;;;;;;15.20;9.37;;;;;;;;;;5031437;28;20484;-96
2021/04/01 05:43:08;;;;;;;13.00;8.80;;;;;;;;;;5030008;28;20483;-96
2021/04/01 05:45:42;;;;;;;23.53;8.27;;;;;;;;;;5021257;28;20478;-95
2021/04/01 05:48:16;;;;;;;12.50;7.83;;;;;;;;;;5021069;28;20486;-96
2021/04/01 05:50:50;;;;;;;10.83;7.77;;;;;;;;;;5020190;28;20542;-96
2021/04/01 06:04:38;;;;;;;9.33;8.33;;;;;;;;;;5050360;28;20470;-95
2021/04/01 06:07:06;;;;;;;16.80;8.67;;;;;;;;;;5042763;23;20482;-96
2021/04/01 06:09:38;;;;;;;9.70;7.70;;;;;;;;;;5007919;28;20453;-95
2021/04/01 06:12:08;;;;;;;11.40;8.57;;;;;;;;;;5005256;28;20465;-96
2021/04/01 06:14:54;;;;;;;11.53;8.70;;;;;;;;;;5028194;23;20508;-94
2021/04/01 06:17:23;;;;;;;11.90;8.33;;;;;;;;;;5028587;28;20481;-94
2021/04/01 06:19:51;;;;;;;11.63;8.57;;;;;;;;;;5043429;28;20463;-94
2021/04/01 06:22:20;;;;;;;8.77;7.53;;;;;;;;;;5039368;28;20455;-95
2021/04/01 06:24:48;;;;;;;12.60;8.50;;;;;;;;;;5048459;22;20505;-96
2021/04/01 06:27:19;;;;;;;13.77;8.80;;;;;;;;;;5037078;28;20448;-96
2021/04/01 06:30:11;;;;;;;14.47;8.60;;;;;;;;;;5033585;28;20443;-95
2021/04/01 06:32:38;;;;;;;13.43;8.00;;;;;;;;;;5028437;28;20514;-92
2021/04/01 06:41:00;;;;;;;10.60;8.30;;;;;;;;;;5032424;28;20443;-95
2021/04/01 06:46:41;;;;;;;9.40;8.37;;;;;;;;;;5038430;28;20410;-96
2021/04/01 06:49:46;;;;;;;12.27;9.93;;;;;;;;;;5029577;28;20460;-95
2021/04/01 06:52:17;;;;;;;12.83;10.33;;;;;;;;;;5044203;23;20487;-96
2021/04/01 06:54:54;;;;;;;14.73;10.70;;;;;;;;;;5027073;28;20452;-96
2021/04/01 06:57:30;;;;;;;15.73;10.60;;;;;;;;;;5017913;28;20506;-95
2021/04/01 07:00:08;;;;;;;12.33;9.87;;;;;;;;;;5028150;28;20495;-94
2021/04/01 07:02:38;;;;;;;15.80;10.23;;;;;;;;;;5023410;28;20451;-94
2021/04/01 07:08:19;;;;;;;12.60;10.70;;;;;;;;;;5034605;28;20932;-96
2021/04/01 07:10:59;;;;;;;13.00;10.27;;;;;;;;;;5023204;23;20483;-94
2021/04/01 07:13:30;;;;;;;16.77;10.90;;;;;;;;;;5018246;28;20558;-95
2021/04/01 07:16:02;;;;;;;16.43;11.67;;;;;;;;;;5023059;28;20479;-92
2021/04/01 07:18:48;;;;;;;12.97;10.47;;;;;;;;;;5021652;28;20467;-96
2021/04/01 07:32:35;;;;;;;17.77;12.97;;;;;;;;;;5004964;28;20467;-93
2021/04/01 07:35:23;;;;;;;16.83;11.40;;;;;;;;;;5017864;28;20463;-95
2021/04/01 07:46:29;;;;;;;13.00;11.60;;;;;;;;;;5021263;28;20459;-95
2021/04/01 07:49:05;;;;;;;12.03;9.90;;;;;;;;;;5032293;28;20455;-96
2021/04/01 07:51:46;;;;;;;13.77;10.57;;;;;;;;;;5028667;28;20451;-95
2021/04/01 07:54:14;;;;;;;13.10;10.33;;;;;;;;;;5020586;28;20456;-95
2021/04/01 07:56:45;;;;;;;13.70;10.30;;;;;;;;;;5023223;28;20549;-96
2021/04/01 07:59:26;;;;;;;14.90;12.07;;;;;;;;;;5024031;28;20512;-95
2021/04/01 08:02:02;;;;;;;11.00;6.40;;;;;;;;;;5023315;28;20448;-94
2021/04/01 08:04:29;;;;;;;15.27;11.07;;;;;;;;;;5024427;28;20447;-95
2021/04/01 08:07:08;;;;;;;21.03;11.20;;;;;;;;;;5027774;28;20462;-96
2021/04/01 08:09:41;;;;;;;13.83;8.70;;;;;;;;;;5024856;28;20467;-96
2021/04/01 08:12:13;;;;;;;9.60;8.63;;;;;;;;;;5020099;28;20490;-95
2021/04/01 08:14:41;;;;;;;11.57;8.50;;;;;;;;;;5021630;28;20470;-95
2021/04/01 08:17:12;;;;;;;9.57;8.17;;;;;;;;;;5023151;28;20496;-94
2021/04/01 08:19:39;;;;;;;13.30;9.27;;;;;;;;;;5025173;28;20592;-94
2021/04/01 08:22:10;;;;;;;16.70;10.60;;;;;;;;;;5022950;28;20448;-93
2021/04/01 08:24:46;;;;;;;10.83;9.33;;;;;;;;;;5024489;28;20487;-95
2021/04/01 08:27:22;;;;;;;10.47;9.13;;;;;;;;;;5024030;28;20597;-96
2021/04/01 08:35:31;;;;;;;12.07;8.47;;;;;;;;;;5033118;28;20446;-96
2021/04/01 08:38:11;;;;;;;6.33;5.73;;;;;;;;;;5032669;28;20597;-96
2021/04/01 08:40:53;;;;;;;8.37;7.27;;;;;;;;;;5020702;28;20455;-96
2021/04/01 08:43:47;;;;;;;7.93;6.33;;;;;;;;;;5026133;28;20444;-96
2021/04/01 08:46:34;;;;;;;10.43;6.30;;;;;;;;;;5025648;28;20476;-96
2021/04/01 08:49:12;;;;;;;11.30;7.23;;;;;;;;;;5020083;28;20530;-93
2021/04/01 08:51:42;;;;;;;7.70;6.43;;;;;;;;;;5022265;28;20487;-96
2021/04/01 08:54:13;;;;;;;10.33;6.97;;;;;;;;;;5025300;28;20498;-96
2021/04/01 08:56:43;;;;;;;14.30;6.83;;;;;;;;;;5027874;28;20533;-96
2021/04/01 08:59:24;;;;;;;10.83;6.20;;;;;;;;;;5031546;28;20440;-96
2021/04/01 09:01:52;;;;;;;10.53;6.07;;;;;;;;;;5035146;28;20454;-95
2021/04/01 09:04:22;;;;;;;8.20;5.30;;;;;;;;;;5034128;28;20436;-93
2021/04/01 09:06:50;;;;;;;8.07;5.13;;;;;;;;;;5027509;28;20486;-94
2021/04/01 09:09:22;;;;;;;6.53;5.10;;;;;;;;;;5029270;28;20459;-95
2021/04/01 09:11:52;;;;;;;11.30;5.23;;;;;;;;;;5028493;28;20518;-96
2021/04/01 09:14:23;;;;;;;7.90;5.33;;;;;;;;;;5023806;28;20458;-95
2021/04/01 09:17:04;;;;;;;5.87;4.97;;;;;;;;;;5023442;28;20561;-96
2021/04/01 09:19:32;;;;;;;5.90;4.47;;;;;;;;;;5021556;28;20833;-96
2021/04/01 09:21:58;;;;;;;5.80;5.20;;;;;;;;;;5022724;28;20502;-96
2021/04/01 09:24:30;;;;;;;10.70;6.40;;;;;;;;;;5004538;28;20453;-96
2021/04/01 09:27:00;;;;;;;6.40;5.67;;;;;;;;;;5022911;28;20467;-95
2021/04/01 09:29:37;;;;;;;6.90;5.43;;;;;;;;;;5025897;28;20472;-96
2021/04/01 09:32:04;;;;;;;6.20;5.20;;;;;;;;;;5029024;28;20451;-94
2021/04/01 09:34:32;;;;;;;5.20;4.70;;;;;;;;;;5027816;28;20452;-96
2021/04/01 09:37:07;;;;;;;7.97;5.13;;;;;;;;;;5028475;28;20562;-96
2021/04/01 09:39:38;;;;;;;8.57;5.50;;;;;;;;;;5048284;23;20502;-94
2021/04/01 09:42:05;;;;;;;8.20;5.37;;;;;;;;;;5050488;28;20510;-93
2021/04/01 09:44:33;;;;;;;7.67;4.47;;;;;;;;;;5042993;28;20506;-95
2021/04/01 09:47:03;;;;;;;8.03;5.50;;;;;;;;;;5046293;28;20450;-94
2021/04/01 09:49:34;;;;;;;9.03;5.60;;;;;;;;;;5045611;28;20463;-93
2021/04/01 09:52:02;;;;;;;6.27;4.70;;;;;;;;;;5045243;28;20479;-95
2021/04/01 09:54:30;;;;;;;5.70;5.20;;;;;;;;;;5043684;28;20452;-95
2021/04/01 09:56:57;;;;;;;8.07;4.93;;;;;;;;;;5042947;28;20583;-93
2021/04/01 09:59:25;;;;;;;12.20;5.47;;;;;;;;;;5041786;28;20466;-92
2021/04/01 10:02:16;;;;;;;6.80;5.10;;;;;;;;;;5051966;28;20444;-94
2021/04/01 10:07:28;;;;;;;10.07;5.40;;;;;;;;;;5052653;28;20478;-95
2021/04/01 10:09:57;;;;;;;7.97;5.30;;;;;;;;;;5045130;28;21280;-96
2021/04/01 10:12:33;;;;;;;9.50;5.17;;;;;;;;;;5042667;28;20554;-94
2021/04/01 10:15:07;;;;;;;7.53;5.37;;;;;;;;;;5047917;28;20445;-95
2021/04/01 10:17:36;;;;;;;8.93;5.27;;;;;;;;;;5043237;28;20570;-95
2021/04/01 10:20:03;;;;;;;5.57;4.93;;;;;;;;;;5024978;28;20451;-93
2021/04/01 10:22:33;;;;;;;5.13;4.57;;;;;;;;;;5024254;28;20445;-96
2021/04/01 10:25:13;;;;;;;10.30;5.53;;;;;;;;;;5046555;28;20543;-96
2021/04/01 10:27:45;;;;;;;9.60;5.33;;;;;;;;;;5036905;28;20461;-94
2021/04/01 10:30:14;;;;;;;10.70;5.70;;;;;;;;;;5044561;28;20473;-96
2021/04/01 10:35:24;;;;;;;7.20;4.70;;;;;;;;;;5030620;28;20451;-95
2021/04/01 10:37:51;;;;;;;7.90;5.33;;;;;;;;;;5043805;28;20495;-96
2021/04/01 10:40:18;;;;;;;6.07;5.33;;;;;;;;;;5046930;28;20481;-96
2021/04/01 10:42:47;;;;;;;4.93;4.50;;;;;;;;;;5043613;28;20462;-95
2021/04/01 10:45:20;;;;;;;11.63;4.90;;;;;;;;;;5046747;28;20452;-96
2021/04/01 10:48:00;;;;;;;5.30;4.80;;;;;;;;;;5027863;28;20455;-96
2021/04/01 10:50:28;;;;;;;7.20;4.50;;;;;;;;;;5047577;28;20467;-96
2021/04/01 10:52:54;;;;;;;5.33;4.73;;;;;;;;;;5044021;28;20448;-96
2021/04/01 10:55:24;;;;;;;5.83;4.90;;;;;;;;;;5048205;28;20455;-96
2021/04/01 10:57:53;;;;;;;6.70;4.50;;;;;;;;;;5036885;28;20856;-95
2021/04/01 11:00:20;;;;;;;7.97;5.40;;;;;;;;;;5045142;28;20456;-96
2021/04/01 11:02:48;;;;;;;5.20;4.70;;;;;;;;;;5037380;28;21135;-96
2021/04/01 11:05:21;;;;;;;5.03;4.50;;;;;;;;;;5055509;23;20494;-96
2021/04/01 11:07:49;;;;;;;5.13;4.70;;;;;;;;;;5018995;28;20457;-96
2021/04/01 11:10:23;;;;;;;7.50;5.23;;;;;;;;;;5028031;28;20437;-96
2021/04/01 11:12:52;;;;;;;5.37;4.97;;;;;;;;;;5027851;28;20458;-96
2021/04/01 11:15:22;;;;;;;6.10;5.50;;;;;;;;;;5025281;28;20467;-94
2021/04/01 11:17:51;;;;;;;5.70;5.17;;;;;;;;;;5023775;28;20491;-96
2021/04/01 11:20:30;;;;;;;7.53;5.60;;;;;;;;;;5022682;28;20468;-96
2021/04/01 11:23:04;;;;;;;6.70;5.57;;;;;;;;;;5027295;28;20459;-96
2021/04/01 11:25:30;;;;;;;8.33;5.50;;;;;;;;;;5025907;28;20448;-96
2021/04/01 11:27:56;;;;;;;6.53;5.90;;;;;;;;;;5026026;28;20463;-95
2021/04/01 11:30:22;;;;;;;7.07;5.70;;;;;;;;;;5026672;28;20470;-95
2021/04/01 11:32:53;;;;;;;6.13;5.53;;;;;;;;;;5027493;28;20502;-95
2021/04/01 11:35:24;;;;;;;7.90;5.53;;;;;;;;;;5031390;28;20459;-93
2021/04/01 11:38:00;;;;;;;7.57;6.33;;;;;;;;;;5028914;28;20502;-96
2021/04/01 11:40:26;;;;;;;6.20;5.60;;;;;;;;;;5026474;28;20454;-96
2021/04/01 11:42:56;;;;;;;7.90;5.47;;;;;;;;;;5020617;28;20484;-95
2021/04/01 11:45:32;;;;;;;6.93;6.20;;;;;;;;;;5026270;28;20550;-95
2021/04/01 11:47:59;;;;;;;6.10;5.60;;;;;;;;;;5025214;28;20455;-95
2021/04/01 11:50:26;;;;;;;10.17;5.77;;;;;;;;;;5028978;28;20456;-95
2021/04/01 11:52:59;;;;;;;6.57;5.97;;;;;;;;;;5026083;28;20465;-96
2021/04/01 11:55:26;;;;;;;5.97;5.47;;;;;;;;;;5017046;28;20475;-94
2021/04/01 11:57:52;;;;;;;6.17;5.57;;;;;;;;;;5017523;28;20491;-95
2021/04/01 12:00:22;;;;;;;6.63;5.60;;;;;;;;;;5025000;28;20456;-95
2021/04/01 12:02:53;;;;;;;6.57;5.60;;;;;;;;;;5026088;28;20514;-96
2021/04/01 12:05:21;;;;;;;6.40;5.80;;;;;;;;;;5026152;28;20498;-95
2021/04/01 12:07:48;;;;;;;6.30;5.57;;;;;;;;;;5026969;28;20518;-96
2021/04/01 12:10:14;;;;;;;8.17;6.17;;;;;;;;;;5024765;28;20479;-96
2021/04/01 12:12:41;;;;;;;5.63;5.13;;;;;;;;;;5026961;28;20459;-93
2021/04/01 12:15:08;;;;;;;7.23;6.03;;;;;;;;;;5009925;28;20455;-95
2021/04/01 12:17:39;;;;;;;10.30;5.97;;;;;;;;;;5034153;23;20717;-96
2021/04/01 12:20:12;;;;;;;7.67;6.00;;;;;;;;;;5011283;28;20451;-96
2021/04/01 12:25:26;;;;;;;6.50;5.60;;;;;;;;;;5027029;28;20462;-96
2021/04/01 12:27:54;;;;;;;7.33;6.40;;;;;;;;;;5008551;28;20459;-95
2021/04/01 12:30:25;;;;;;;8.30;6.50;;;;;;;;;;5029224;28;20794;-95
2021/04/01 12:32:51;;;;;;;7.57;6.80;;;;;;;;;;5006929;28;20474;-95
2021/04/01 12:35:20;;;;;;;11.10;6.60;;;;;;;;;;5034188;28;20466;-96
2021/04/01 12:37:56;;;;;;;6.83;5.73;;;;;;;;;;5025622;28;20495;-96
2021/04/01 12:40:25;;;;;;;6.53;5.40;;;;;;;;;;5028447;28;20494;-96
2021/04/01 12:42:52;;;;;;;7.13;5.97;;;;;;;;;;5029572;28;20463;-94
2021/04/01 12:45:22;;;;;;;6.53;5.83;;;;;;;;;;5029680;28;20470;-93
2021/04/01 12:47:51;;;;;;;6.70;6.10;;;;;;;;;;5026813;28;20551;-93
2021/04/01 12:50:17;;;;;;;6.23;5.60;;;;;;;;;;5027726;28;20451;-95
2021/04/01 12:52:51;;;;;;;7.13;5.40;;;;;;;;;;5026174;28;20560;-95
2021/04/01 12:55:32;;;;;;;8.13;6.03;;;;;;;;;;5013391;28;20535;-96
2021/04/01 12:57:58;;;;;;;10.20;5.60;;;;;;;;;;5027045;28;20490;-96
2021/04/01 13:00:35;;;;;;;6.20;5.50;;;;;;;;;;5029955;28;20448;-94
2021/04/01 13:03:03;;;;;;;5.50;4.60;;;;;;;;;;5031406;28;20474;-96
2021/04/01 13:05:29;;;;;;;5.50;5.00;;;;;;;;;;5029831;28;20455;-96
2021/04/01 13:08:09;;;;;;;8.97;6.17;;;;;;;;;;5012822;28;20467;-96
2021/04/01 13:10:52;;;;;;;5.67;5.17;;;;;;;;;;5032193;28;20462;-95
2021/04/01 13:13:21;;;;;;;6.40;4.90;;;;;;;;;;5079926;22;20493;-96
2021/04/01 13:15:50;;;;;;;7.03;5.87;;;;;;;;;;5067638;28;20475;-96
2021/04/01 13:18:16;;;;;;;8.33;5.53;;;;;;;;;;5091963;23;20502;-96
2021/04/01 13:20:43;;;;;;;6.20;5.60;;;;;;;;;;5006277;28;20459;-96
2021/04/01 13:23:22;;;;;;;8.80;5.80;;;;;;;;;;5023257;28;20440;-94
2021/04/01 13:25:48;;;;;;;6.13;5.60;;;;;;;;;;5027517;28;20481;-96
2021/04/01 13:28:18;;;;;;;6.50;5.90;;;;;;;;;;5026028;28;20440;-96
2021/04/01 13:30:48;;;;;;;5.63;5.00;;;;;;;;;;5027342;28;20514;-94
2021/04/01 13:33:20;;;;;;;7.10;6.10;;;;;;;;;;5024992;28;20462;-95
2021/04/01 13:35:54;;;;;;;8.07;6.20;;;;;;;;;;5030027;28;20451;-93
2021/04/01 13:38:23;;;;;;;8.60;5.90;;;;;;;;;;5028648;28;20518;-94
2021/04/01 13:40:51;;;;;;;7.33;6.00;;;;;;;;;;5023751;28;20466;-92
2021/04/01 13:43:27;;;;;;;5.67;5.17;;;;;;;;;;5025313;28;20540;-96
2021/04/01 13:45:55;;;;;;;9.57;8.57;;;;;;;;;;5025023;28;20454;-94
2021/04/01 13:48:24;;;;;;;6.43;5.50;;;;;;;;;;5025081;28;20451;-94
2021/04/01 13:50:53;;;;;;;6.93;5.57;;;;;;;;;;5026159;28;20530;-96
2021/04/01 13:53:31;;;;;;;12.10;7.10;;;;;;;;;;5018148;28;20467;-95
2021/04/01 13:56:04;;;;;;;6.57;5.97;;;;;;;;;;5024466;28;20466;-96
2021/04/01 14:04:11;;;;;;;5.43;4.93;;;;;;;;;;5027908;28;20548;-95
2021/04/01 14:09:28;;;;;;;7.50;5.70;;;;;;;;;;5030562;28;20470;-94
2021/04/01 14:12:00;;;;;;;5.87;5.27;;;;;;;;;;5025049;28;20452;-95
2021/04/01 14:14:28;;;;;;;10.37;5.97;;;;;;;;;;5022396;28;20608;-96
2021/04/01 14:16:54;;;;;;;6.33;4.83;;;;;;;;;;5006781;28;20559;-96
2021/04/01 14:19:21;;;;;;;5.83;5.33;;;;;;;;;;5025153;28;20451;-93
2021/04/01 14:21:50;;;;;;;5.90;5.10;;;;;;;;;;5021446;28;20472;-95
2021/04/01 14:24:20;;;;;;;5.10;4.30;;;;;;;;;;5027653;28;20456;-96
2021/04/01 14:26:53;;;;;;;5.90;5.47;;;;;;;;;;5023433;28;20502;-96
2021/04/01 14:29:26;;;;;;;5.90;5.03;;;;;;;;;;5023662;28;20498;-96
2021/04/01 14:32:04;;;;;;;6.57;5.97;;;;;;;;;;5017701;28;20463;-96
2021/04/01 14:34:31;;;;;;;5.83;5.33;;;;;;;;;;5027678;28;21070;-95
2021/04/01 14:37:00;;;;;;;6.47;5.30;;;;;;;;;;5029924;28;20494;-96
2021/04/01 14:39:39;;;;;;;5.90;5.27;;;;;;;;;;5029224;28;20454;-96
2021/04/01 14:42:08;;;;;;;6.90;5.93;;;;;;;;;;5017588;28;20556;-96
2021/04/01 14:44:35;;;;;;;7.93;5.90;;;;;;;;;;5027147;28;20456;-96
2021/04/01 14:47:06;;;;;;;6.23;5.60;;;;;;;;;;5024011;28;20463;-96
2021/04/01 14:49:32;;;;;;;6.97;5.30;;;;;;;;;;5026623;28;20465;-95
2021/04/01 14:52:01;;;;;;;5.87;5.27;;;;;;;;;;5024864;28;20466;-95
2021/04/01 14:54:31;;;;;;;8.80;5.63;;;;;;;;;;5027080;28;20490;-94
2021/04/01 14:57:03;;;;;;;6.20;5.60;;;;;;;;;;5023183;28;20483;-96
2021/04/01 14:59:30;;;;;;;10.23;6.70;;;;;;;;;;5026393;28;20436;-96
2021/04/01 15:01:57;;;;;;;8.87;6.23;;;;;;;;;;5008937;28;20433;-96
2021/04/01 15:04:32;;;;;;;7.17;5.40;;;;;;;;;;5029336;28;20446;-96
2021/04/01 15:07:00;;;;;;;6.37;5.77;;;;;;;;;;5024187;28;20482;-95
2021/04/01 15:09:29;;;;;;;8.83;5.40;;;;;;;;;;5028751;28;20457;-96
2021/04/01 15:11:55;;;;;;;9.30;5.60;;;;;;;;;;5029669;28;20444;-95
2021/04/01 15:14:22;;;;;;;7.40;5.67;;;;;;;;;;5027124;28;20461;-95
2021/04/01 15:16:49;;;;;;;12.37;6.40;;;;;;;;;;5023706;28;20655;-95
2021/04/01 15:21:41;;;;;;;6.50;5.30;;;;;;;;;;5055199;22;20501;-94
2021/04/01 15:24:08;;;;;;;6.10;5.50;;;;;;;;;;5046981;28;20466;-94
2021/04/01 15:26:35;;;;;;;10.47;5.63;;;;;;;;;;5044391;28;20533;-95
2021/04/01 15:29:03;;;;;;;10.30;6.47;;;;;;;;;;5060871;28;20793;-95
2021/04/01 15:31:29;;;;;;;6.83;5.57;;;;;;;;;;5065513;28;20449;-96
2021/04/01 15:33:55;;;;;;;6.90;5.63;;;;;;;;;;5067369;28;20496;-96
2021/04/01 15:36:23;;;;;;;9.17;6.23;;;;;;;;;;5056241;28;20471;-93
2021/04/01 15:39:00;;;;;;;7.40;5.90;;;;;;;;;;5069306;28;20475;-93
2021/04/01 15:41:26;;;;;;;6.30;5.60;;;;;;;;;;5068994;28;20828;-95
2021/04/01 15:43:53;;;;;;;9.97;5.73;;;;;;;;;;5063421;28;20453;-94
2021/04/01 15:46:19;;;;;;;5.93;4.77;;;;;;;;;;5066230;28;20519;-93
2021/04/01 15:48:51;;;;;;;7.80;5.60;;;;;;;;;;5067742;28;20457;-96
2021/04/01 15:51:18;;;;;;;7.70;6.30;;;;;;;;;;5057522;28;20469;-96
2021/04/01 15:53:44;;;;;;;5.80;5.20;;;;;;;;;;5046094;28;20967;-92
2021/04/01 15:56:13;;;;;;;7.93;5.67;;;;;;;;;;5064345;28;20437;-95
2021/04/01 15:58:39;;;;;;;8.40;6.17;;;;;;;;;;5065829;28;20492;-95
2021/04/01 16:01:07;;;;;;;8.63;5.90;;;;;;;;;;5068638;28;20458;-96
2021/04/01 16:03:35;;;;;;;7.97;7.17;;;;;;;;;;5069549;28;20476;-93
2021/04/01 16:06:02;;;;;;;6.40;5.53;;;;;;;;;;5071533;28;20440;-96
2021/04/01 16:08:30;;;;;;;8.00;6.00;;;;;;;;;;5069117;28;20440;-95
2021/04/01 16:10:56;;;;;;;6.83;6.10;;;;;;;;;;5103763;23;20511;-94
2021/04/01 16:13:45;;;;;;;9.73;6.63;;;;;;;;;;5030719;28;20519;-96
2021/04/01 16:16:16;;;;;;;7.37;5.73;;;;;;;;;;5019723;28;20444;-96
2021/04/01 16:18:42;;;;;;;9.00;6.53;;;;;;;;;;5026846;28;20841;-96
2021/04/01 16:21:08;;;;;;;9.23;6.33;;;;;;;;;;5008877;28;21094;-94
2021/04/01 16:23:35;;;;;;;7.10;6.20;;;;;;;;;;5026259;28;20652;-96
2021/04/01 16:26:01;;;;;;;12.27;6.23;;;;;;;;;;5024500;28;20463;-95